createdAt,value
2023-05-14T00:00:15.469Z,9.97
2023-05-14T00:03:01.271Z,10.11
2023-05-14T00:05:48.506Z,10.24
2023-05-14T00:08:34.399Z,10.37
2023-05-14T00:11:21.022Z,10.53
2023-05-14T00:14:06.500Z,10.62
2023-05-14T00:16:52.071Z,10.75
2023-05-14T00:19:37.756Z,10.75
2023-05-14T00:22:25.846Z,10.78
2023-05-14T00:25:11.252Z,10.78
2023-05-14T00:27:58.885Z,10.83
2023-05-14T00:30:44.814Z,10.85
2023-05-14T00:33:30.093Z,10.82
2023-05-14T00:36:15.760Z,10.81
2023-05-14T00:39:01.405Z,10.80
2023-05-14T00:41:46.937Z,10.69
2023-05-14T00:44:33.005Z,10.60
2023-05-14T00:47:18.903Z,10.55
2023-05-14T00:50:04.792Z,10.59
2023-05-14T00:52:50.287Z,10.59
2023-05-14T00:55:40.718Z,10.59
2023-05-14T00:58:26.456Z,10.60
2023-05-14T01:01:15.183Z,10.57
2023-05-14T01:04:01.199Z,10.57
2023-05-14T01:07:09.577Z,10.59
2023-05-14T01:10:42.330Z,10.67
2023-05-14T01:13:44.346Z,10.72
2023-05-14T01:16:31.879Z,10.74
2023-05-14T01:19:25.529Z,10.77
2023-05-14T01:22:11.876Z,10.78
2023-05-14T01:24:57.532Z,10.84
2023-05-14T01:27:50.371Z,10.84
2023-05-14T01:30:42.118Z,10.85
2023-05-14T01:33:29.754Z,10.81
2023-05-14T01:36:15.741Z,10.78
2023-05-14T01:39:03.851Z,10.76
2023-05-14T01:41:50.885Z,10.76
2023-05-14T01:44:37.371Z,10.71
2023-05-14T01:47:22.968Z,10.68
2023-05-14T01:50:08.765Z,10.66
2023-05-14T01:52:56.686Z,10.65
2023-05-14T01:55:42.732Z,10.62
2023-05-14T01:58:28.781Z,10.58
2023-05-14T02:01:14.203Z,10.58
2023-05-14T02:04:01.166Z,10.57
2023-05-14T02:06:46.426Z,10.57
2023-05-14T02:09:31.739Z,10.55
2023-05-14T02:12:17.271Z,10.57
2023-05-14T02:15:03.946Z,10.55
2023-05-14T02:17:49.634Z,10.53
2023-05-14T02:20:35.025Z,10.51
2023-05-14T02:23:25.679Z,10.46
2023-05-14T02:26:16.908Z,10.41
2023-05-14T02:29:02.743Z,10.38
2023-05-14T02:31:48.191Z,10.31
2023-05-14T02:34:34.619Z,10.17
2023-05-14T02:37:20.689Z,10.04
2023-05-14T02:40:06.697Z,9.91
2023-05-14T02:42:52.296Z,9.81
2023-05-14T02:45:38.752Z,9.70
2023-05-14T02:48:24.193Z,9.63
2023-05-14T02:51:10.782Z,9.55
2023-05-14T02:53:56.486Z,9.47
2023-05-14T02:56:41.819Z,9.36
2023-05-14T02:59:27.682Z,9.30
2023-05-14T03:02:13.642Z,9.24
2023-05-14T03:04:59.247Z,9.17
2023-05-14T03:07:44.966Z,9.15
2023-05-14T03:10:33.459Z,9.09
2023-05-14T03:13:20.762Z,9.10
2023-05-14T03:16:06.470Z,9.03
2023-05-14T03:18:52.174Z,8.99
2023-05-14T03:21:37.729Z,8.94
2023-05-14T03:24:23.247Z,8.87
2023-05-14T03:27:11.147Z,8.84
2023-05-14T03:29:56.601Z,8.79
2023-05-14T03:32:42.994Z,8.73
2023-05-14T03:35:28.582Z,8.67
2023-05-14T03:38:14.125Z,8.63
2023-05-14T03:40:59.665Z,8.63
2023-05-14T03:43:48.087Z,8.64
2023-05-14T03:46:33.626Z,8.71
2023-05-14T03:49:19.221Z,8.70
2023-05-14T03:52:05.027Z,8.73
2023-05-14T03:54:50.884Z,8.72
2023-05-14T03:57:36.921Z,8.75
2023-05-14T04:00:22.699Z,8.80
2023-05-14T04:03:10.451Z,8.84
2023-05-14T04:05:55.789Z,8.83
2023-05-14T04:08:41.820Z,8.85
2023-05-14T04:11:27.447Z,8.87
2023-05-14T04:14:13.008Z,8.88
2023-05-14T04:17:00.215Z,8.86
2023-05-14T04:19:48.875Z,8.93
2023-05-14T04:22:34.492Z,9.02
2023-05-14T04:25:20.159Z,9.05
2023-05-14T04:28:06.045Z,9.07
2023-05-14T04:30:51.984Z,9.10
2023-05-14T04:33:40.605Z,9.12
2023-05-14T04:36:25.956Z,9.12
2023-05-14T04:39:12.523Z,9.12
2023-05-14T04:41:58.216Z,9.18
2023-05-14T04:44:43.575Z,9.23
2023-05-14T04:47:29.709Z,9.27
2023-05-14T04:50:15.960Z,9.27
2023-05-14T04:53:01.320Z,9.29
2023-05-14T04:55:46.613Z,9.36
2023-05-14T04:58:34.484Z,9.37
2023-05-14T05:01:21.042Z,9.43
2023-05-14T05:04:06.422Z,9.46
2023-05-14T05:06:51.554Z,9.52
2023-05-14T05:09:36.975Z,9.59
2023-05-14T05:12:22.995Z,9.65
2023-05-14T05:15:09.759Z,9.70
2023-05-14T05:17:55.065Z,9.76
2023-05-14T05:20:40.576Z,9.82
2023-05-14T05:23:26.192Z,9.88
2023-05-14T05:26:11.539Z,9.94
2023-05-14T05:28:56.985Z,9.98
2023-05-14T05:31:42.315Z,10.04
2023-05-14T05:34:27.921Z,10.12
2023-05-14T05:37:15.019Z,10.16
2023-05-14T05:40:00.278Z,10.18
2023-05-14T05:42:45.741Z,10.23
2023-05-14T05:45:31.196Z,10.28
2023-05-14T05:48:17.107Z,10.33
2023-05-14T05:51:02.771Z,10.39
2023-05-14T05:53:48.105Z,10.44
2023-05-14T05:56:33.489Z,10.50
2023-05-14T05:59:18.965Z,10.57
2023-05-14T06:02:04.716Z,10.64
2023-05-14T06:04:50.384Z,10.69
2023-05-14T06:07:36.003Z,10.73
2023-05-14T06:10:22.113Z,10.80
2023-05-14T06:13:08.072Z,10.84
2023-05-14T06:15:53.535Z,10.88
2023-05-14T06:18:38.983Z,10.91
2023-05-14T06:21:25.171Z,10.95
2023-05-14T06:24:11.156Z,10.98
2023-05-14T06:26:56.678Z,11.01
2023-05-14T06:29:42.181Z,11.04
2023-05-14T06:32:27.679Z,11.09
2023-05-14T06:35:12.928Z,11.12
2023-05-14T06:37:58.397Z,11.19
2023-05-14T06:40:43.821Z,11.23
2023-05-14T06:43:29.367Z,11.27
2023-05-14T06:46:15.391Z,11.32
2023-05-14T06:49:01.117Z,11.39
2023-05-14T06:51:46.317Z,11.47
2023-05-14T06:54:31.874Z,11.59
2023-05-14T06:57:17.435Z,11.72
2023-05-14T07:00:03.776Z,11.84
2023-05-14T07:02:49.742Z,11.97
2023-05-14T07:05:35.036Z,12.09
2023-05-14T07:08:20.717Z,12.16
2023-05-14T07:11:06.154Z,12.22
2023-05-14T07:13:51.451Z,12.24
2023-05-14T07:16:37.175Z,12.28
2023-05-14T07:19:22.768Z,12.33
2023-05-14T07:22:08.472Z,12.34
2023-05-14T07:24:53.960Z,12.40
2023-05-14T07:27:39.326Z,12.43
2023-05-14T07:30:25.103Z,12.54
2023-05-14T07:33:11.001Z,12.57
2023-05-14T07:35:56.417Z,12.57
2023-05-14T07:38:41.962Z,12.58
2023-05-14T07:41:27.633Z,12.59
2023-05-14T07:44:13.173Z,12.63
2023-05-14T07:46:58.887Z,12.66
2023-05-14T07:49:44.174Z,12.72
2023-05-14T07:52:29.437Z,12.80
2023-05-14T07:55:14.925Z,12.91
2023-05-14T07:58:00.472Z,13.01
2023-05-14T08:00:46.198Z,13.13
2023-05-14T08:03:31.660Z,13.33
2023-05-14T08:06:17.414Z,13.51
2023-05-14T08:09:05.423Z,13.66
2023-05-14T08:11:50.849Z,13.67
2023-05-14T08:14:36.467Z,13.70
2023-05-14T08:17:22.139Z,13.61
2023-05-14T08:20:09.128Z,13.60
2023-05-14T08:22:54.693Z,13.68
2023-05-14T08:25:40.066Z,13.85
2023-05-14T08:28:25.473Z,14.01
2023-05-14T08:31:11.012Z,14.16
2023-05-14T08:33:56.586Z,14.25
2023-05-14T08:36:42.252Z,14.46
2023-05-14T08:39:27.591Z,14.39
2023-05-14T08:42:13.966Z,14.34
2023-05-14T08:45:04.079Z,14.34
2023-05-14T08:47:51.560Z,14.40
2023-05-14T08:50:37.627Z,14.43
2023-05-14T08:53:23.529Z,14.37
2023-05-14T08:56:10.179Z,14.29
2023-05-14T08:58:55.617Z,14.24
2023-05-14T09:01:51.588Z,14.06
2023-05-14T09:04:37.545Z,13.97
2023-05-14T09:07:23.976Z,13.89
2023-05-14T09:10:10.263Z,13.80
2023-05-14T09:12:56.088Z,13.70
2023-05-14T09:15:41.682Z,13.63
2023-05-14T09:18:27.291Z,13.49
2023-05-14T09:21:15.094Z,13.46
2023-05-14T09:24:01.107Z,13.49
2023-05-14T09:26:50.713Z,13.49
2023-05-14T09:29:37.238Z,13.41
2023-05-14T09:32:22.520Z,13.43
2023-05-14T09:35:11.913Z,13.39
2023-05-14T09:37:57.341Z,13.21
2023-05-14T09:40:43.091Z,13.25
2023-05-14T09:43:28.439Z,13.40
2023-05-14T09:46:13.802Z,13.46
2023-05-14T09:48:59.406Z,13.58
2023-05-14T09:51:45.300Z,13.85
2023-05-14T09:54:33.301Z,13.91
2023-05-14T09:57:18.844Z,13.99
2023-05-14T10:00:04.968Z,14.13
2023-05-14T10:02:53.312Z,14.33
2023-05-14T10:05:41.127Z,14.51
2023-05-14T10:08:36.582Z,14.58
2023-05-14T10:11:26.255Z,14.38
2023-05-14T10:14:32.819Z,14.15
2023-05-14T10:17:21.467Z,14.06
2023-05-14T10:20:10.253Z,13.97
2023-05-14T10:22:56.566Z,14.11
2023-05-14T10:25:42.509Z,14.28
2023-05-14T10:28:28.604Z,14.27
2023-05-14T10:31:14.045Z,14.18
2023-05-14T10:33:59.921Z,14.06
2023-05-14T10:36:45.851Z,14.01
2023-05-14T10:39:57.769Z,13.95
2023-05-14T10:42:44.054Z,13.89
2023-05-14T10:45:30.550Z,13.80
2023-05-14T10:48:16.322Z,13.78
2023-05-14T10:51:02.959Z,13.77
2023-05-14T10:53:49.352Z,13.86
2023-05-14T10:56:34.610Z,13.97
2023-05-14T10:59:19.980Z,13.99
2023-05-14T11:02:05.984Z,13.97
2023-05-14T11:05:16.938Z,13.73
2023-05-14T11:08:06.139Z,13.64
2023-05-14T11:10:52.421Z,13.63
2023-05-14T11:13:38.806Z,13.73
2023-05-14T11:16:26.505Z,14.04
2023-05-14T11:19:11.930Z,14.25
2023-05-14T11:21:57.234Z,14.51
2023-05-14T11:24:42.646Z,14.84
2023-05-14T11:27:28.304Z,14.85
2023-05-14T11:30:18.512Z,14.64
2023-05-14T11:33:04.332Z,13.39
2023-05-14T11:35:51.985Z,12.69
2023-05-14T11:38:51.599Z,12.27
2023-05-14T11:41:37.143Z,12.09
2023-05-14T11:44:22.830Z,11.84
2023-05-14T11:47:08.400Z,11.77
2023-05-14T11:49:54.086Z,11.81
2023-05-14T11:52:42.591Z,11.91
2023-05-14T11:55:28.073Z,12.05
2023-05-14T11:58:14.184Z,12.10
2023-05-14T12:00:59.948Z,12.29
2023-05-14T12:03:45.612Z,12.46
2023-05-14T12:06:32.502Z,12.50
2023-05-14T12:09:20.018Z,12.37
2023-05-14T12:12:12.886Z,12.13
2023-05-14T12:14:59.930Z,12.21
2023-05-14T12:17:52.051Z,12.33
2023-05-14T12:20:37.825Z,12.68
2023-05-14T12:23:28.919Z,12.99
2023-05-14T12:26:14.418Z,13.37
2023-05-14T12:29:01.885Z,13.94
2023-05-14T12:31:48.674Z,14.26
2023-05-14T12:34:35.964Z,14.41
2023-05-14T12:37:22.862Z,14.13
2023-05-14T12:40:11.652Z,13.61
2023-05-14T12:42:57.412Z,13.17
2023-05-14T12:45:42.889Z,12.78
2023-05-14T12:48:28.432Z,12.50
2023-05-14T12:51:13.847Z,12.25
2023-05-14T12:53:59.182Z,12.06
2023-05-14T12:56:44.469Z,12.05
2023-05-14T12:59:30.056Z,12.22
2023-05-14T13:02:17.466Z,12.51
2023-05-14T13:05:03.810Z,12.91
2023-05-14T13:07:49.266Z,13.40
2023-05-14T13:10:34.631Z,13.16
2023-05-14T13:13:20.272Z,12.90
2023-05-14T13:16:05.913Z,12.93
2023-05-14T13:18:51.448Z,12.91
2023-05-14T13:21:36.702Z,12.81
2023-05-14T13:24:22.163Z,12.74
2023-05-14T13:27:07.586Z,12.83
2023-05-14T13:29:52.996Z,12.92
2023-05-14T13:32:39.270Z,12.95
2023-05-14T13:35:25.763Z,13.09
2023-05-14T13:38:11.308Z,12.99
2023-05-14T13:41:02.793Z,12.98
2023-05-14T13:43:48.412Z,13.08
2023-05-14T13:46:34.024Z,13.19
2023-05-14T13:49:19.684Z,13.55
2023-05-14T13:52:05.670Z,13.85
2023-05-14T13:54:51.346Z,14.21
2023-05-14T13:57:36.721Z,14.59
2023-05-14T14:00:22.452Z,15.03
2023-05-14T14:03:08.280Z,15.11
2023-05-14T14:05:53.632Z,15.08
2023-05-14T14:08:39.018Z,15.03
2023-05-14T14:11:24.371Z,14.83
2023-05-14T14:14:09.580Z,14.91
2023-05-14T14:16:54.964Z,14.94
2023-05-14T14:19:40.471Z,15.20
2023-05-14T14:22:28.115Z,15.44
2023-05-14T14:25:14.449Z,15.62
2023-05-14T14:28:00.115Z,16.07
2023-05-14T14:30:45.520Z,16.41
2023-05-14T14:33:30.657Z,16.88
2023-05-14T14:36:16.269Z,17.09
2023-05-14T14:39:01.488Z,16.98
2023-05-14T14:41:47.810Z,16.79
2023-05-14T14:44:33.218Z,16.49
2023-05-14T14:47:18.538Z,16.28
2023-05-14T14:50:04.525Z,16.26
2023-05-14T14:52:49.729Z,16.32
2023-05-14T14:55:35.138Z,16.87
2023-05-14T14:58:21.328Z,17.00
2023-05-14T15:01:07.215Z,16.62
2023-05-14T15:03:52.860Z,16.06
2023-05-14T15:06:38.165Z,15.55
2023-05-14T15:09:23.482Z,15.14
2023-05-14T15:12:10.247Z,14.86
2023-05-14T15:14:55.838Z,14.67
2023-05-14T15:17:41.470Z,14.65
2023-05-14T15:20:26.721Z,14.60
2023-05-14T15:23:12.351Z,14.57
2023-05-14T15:25:58.010Z,14.72
2023-05-14T15:28:43.748Z,14.63
2023-05-14T15:31:29.172Z,14.71
2023-05-14T15:34:14.438Z,14.90
2023-05-14T15:36:59.951Z,15.08
2023-05-14T15:39:45.454Z,14.98
2023-05-14T15:42:31.182Z,14.96
2023-05-14T15:45:17.073Z,15.03
2023-05-14T15:48:02.496Z,14.91
2023-05-14T15:50:49.670Z,15.04
2023-05-14T15:53:35.618Z,15.22
2023-05-14T15:56:22.928Z,15.33
2023-05-14T15:59:08.337Z,15.44
2023-05-14T16:01:53.695Z,15.52
2023-05-14T16:04:39.187Z,15.49
2023-05-14T16:07:24.745Z,15.65
2023-05-14T16:10:10.458Z,15.90
2023-05-14T16:12:56.038Z,15.94
2023-05-14T16:15:41.644Z,15.80
2023-05-14T16:18:26.879Z,16.07
2023-05-14T16:21:12.398Z,16.05
2023-05-14T16:23:57.729Z,15.96
2023-05-14T16:26:43.270Z,16.11
2023-05-14T16:29:28.909Z,16.03
2023-05-14T16:32:14.314Z,15.88
2023-05-14T16:35:01.826Z,15.51
2023-05-14T16:37:47.058Z,15.33
2023-05-14T16:40:32.410Z,14.96
2023-05-14T16:43:17.926Z,14.90
2023-05-14T16:46:03.308Z,14.89
2023-05-14T16:48:50.697Z,14.83
2023-05-14T16:51:37.365Z,14.49
2023-05-14T16:54:22.680Z,14.50
2023-05-14T16:57:08.036Z,14.51
2023-05-14T16:59:53.608Z,14.31
2023-05-14T17:02:39.508Z,14.28
2023-05-14T17:05:25.366Z,14.09
2023-05-14T17:08:11.374Z,14.04
2023-05-14T17:10:56.818Z,13.87
2023-05-14T17:13:42.441Z,13.84
2023-05-14T17:16:28.299Z,13.63
2023-05-14T17:19:13.742Z,13.49
2023-05-14T17:21:59.473Z,13.51
2023-05-14T17:24:45.120Z,13.43
2023-05-14T17:27:33.304Z,13.30
2023-05-14T17:30:18.571Z,13.32
2023-05-14T17:33:04.238Z,13.28
2023-05-14T17:35:49.691Z,13.31
2023-05-14T17:38:35.287Z,13.20
2023-05-14T17:41:21.634Z,13.09
2023-05-14T17:44:07.299Z,12.99
2023-05-14T17:46:52.698Z,12.99
2023-05-14T17:49:38.531Z,12.97
2023-05-14T17:52:23.982Z,12.93
2023-05-14T17:55:09.998Z,12.93
2023-05-14T17:57:55.328Z,12.88
2023-05-14T18:00:41.177Z,12.85
2023-05-14T18:03:26.977Z,12.82
2023-05-14T18:06:12.459Z,12.88
2023-05-14T18:08:57.899Z,12.90
2023-05-14T18:11:43.279Z,12.93
2023-05-14T18:14:28.961Z,12.81
2023-05-14T18:17:14.262Z,12.81
2023-05-14T18:20:00.274Z,12.82
2023-05-14T18:22:45.904Z,12.78
2023-05-14T18:25:31.255Z,12.77
2023-05-14T18:28:16.913Z,12.77
2023-05-14T18:31:04.173Z,12.68
2023-05-14T18:33:49.735Z,12.67
2023-05-14T18:36:35.012Z,12.56
2023-05-14T18:39:20.356Z,12.53
2023-05-14T18:42:06.182Z,12.45
2023-05-14T18:44:51.731Z,12.43
2023-05-14T18:47:37.398Z,12.32
2023-05-14T18:50:23.154Z,12.29
2023-05-14T18:53:08.547Z,12.33
2023-05-14T18:55:54.158Z,12.25
2023-05-14T18:58:39.354Z,12.19
2023-05-14T19:01:25.756Z,12.12
2023-05-14T19:04:11.752Z,12.08
2023-05-14T19:06:57.140Z,12.05
2023-05-14T19:09:42.800Z,12.02
2023-05-14T19:12:28.037Z,12.01
2023-05-14T19:15:13.694Z,11.99
2023-05-14T19:17:59.636Z,11.93
2023-05-14T19:20:46.684Z,11.90
2023-05-14T19:23:32.844Z,11.76
2023-05-14T19:26:18.418Z,11.72
2023-05-14T19:29:03.879Z,11.68
2023-05-14T19:31:50.132Z,11.63
2023-05-14T19:34:35.802Z,11.55
2023-05-14T19:37:21.406Z,11.49
2023-05-14T19:40:07.523Z,11.46
2023-05-14T19:42:53.180Z,11.40
2023-05-14T19:45:39.427Z,11.34
2023-05-14T19:48:24.998Z,11.34
2023-05-14T19:51:11.061Z,11.26
2023-05-14T19:53:56.761Z,11.26
2023-05-14T19:56:42.295Z,11.19
2023-05-14T19:59:29.498Z,11.19
2023-05-14T20:02:18.334Z,11.12
2023-05-14T20:05:06.792Z,11.08
2023-05-14T20:07:54.674Z,11.02
2023-05-14T20:10:41.511Z,10.94
2023-05-14T20:13:27.304Z,10.87
2023-05-14T20:16:16.715Z,10.77
2023-05-14T20:19:02.678Z,10.71
2023-05-14T20:21:48.630Z,10.66
2023-05-14T20:24:34.127Z,10.56
2023-05-14T20:27:19.543Z,10.43
2023-05-14T20:30:07.499Z,10.35
2023-05-14T20:32:52.952Z,10.24
2023-05-14T20:35:38.610Z,10.13
2023-05-14T20:38:25.699Z,10.02
2023-05-14T20:41:10.993Z,9.89
2023-05-14T20:43:56.434Z,9.79
2023-05-14T20:46:41.738Z,9.77
2023-05-14T20:49:27.025Z,9.69
2023-05-14T20:52:13.453Z,9.57
2023-05-14T20:55:01.396Z,9.54
2023-05-14T20:57:47.405Z,9.43
2023-05-14T21:00:33.146Z,9.33
2023-05-14T21:03:18.652Z,9.29
2023-05-14T21:06:05.228Z,9.27
2023-05-14T21:08:50.681Z,9.24
2023-05-14T21:11:36.479Z,9.25
2023-05-14T21:14:21.923Z,9.20
2023-05-14T21:17:07.754Z,9.18
2023-05-14T21:19:53.101Z,9.12
2023-05-14T21:22:38.279Z,9.11
2023-05-14T21:25:23.853Z,9.06
2023-05-14T21:28:09.572Z,8.99
2023-05-14T21:30:54.982Z,8.91
2023-05-14T21:33:41.038Z,8.82
2023-05-14T21:36:26.664Z,8.75
2023-05-14T21:39:12.380Z,8.67
2023-05-14T21:41:57.560Z,8.62
2023-05-14T21:44:42.779Z,8.54
2023-05-14T21:47:28.550Z,8.45
2023-05-14T21:50:13.934Z,8.39
2023-05-14T21:52:59.264Z,8.35
2023-05-14T21:55:44.617Z,8.32
2023-05-14T21:58:29.947Z,8.29
2023-05-14T22:01:15.648Z,8.26
2023-05-14T22:04:00.835Z,8.18
2023-05-14T22:06:46.598Z,8.13
2023-05-14T22:09:32.321Z,8.08
2023-05-14T22:12:17.581Z,8.05
2023-05-14T22:15:03.883Z,8.03
2023-05-14T22:17:49.684Z,8.00
2023-05-14T22:20:35.327Z,7.93
2023-05-14T22:23:20.882Z,7.91
2023-05-14T22:26:06.311Z,7.86
2023-05-14T22:28:52.661Z,7.82
2023-05-14T22:31:38.144Z,7.79
2023-05-14T22:34:23.448Z,7.77
2023-05-14T22:37:09.020Z,7.73
2023-05-14T22:39:54.572Z,7.64
2023-05-14T22:42:39.808Z,7.65
2023-05-14T22:45:25.430Z,7.67
2023-05-14T22:48:11.153Z,7.66
2023-05-14T22:50:56.839Z,7.58
2023-05-14T22:53:42.269Z,7.52
2023-05-14T22:56:28.231Z,7.46
2023-05-14T22:59:13.462Z,7.41
2023-05-14T23:01:58.924Z,7.39
2023-05-14T23:04:44.176Z,7.32
2023-05-14T23:07:29.598Z,7.26
2023-05-14T23:10:15.301Z,7.21
2023-05-14T23:13:00.856Z,7.13
2023-05-14T23:15:46.559Z,7.04
2023-05-14T23:18:32.192Z,6.95
2023-05-14T23:21:17.675Z,6.91
2023-05-14T23:24:02.960Z,6.87
2023-05-14T23:26:48.320Z,6.80
2023-05-14T23:29:33.631Z,6.72
2023-05-14T23:32:18.937Z,6.69
2023-05-14T23:35:04.989Z,6.63
2023-05-14T23:37:51.240Z,6.58
2023-05-14T23:40:36.535Z,6.53
2023-05-14T23:43:21.850Z,6.49
2023-05-14T23:46:08.240Z,6.45
2023-05-14T23:48:57.100Z,6.40
2023-05-14T23:51:42.619Z,6.37
2023-05-14T23:54:28.006Z,6.34
2023-05-14T23:57:14.650Z,6.28
